createdAt,value
2019-02-10T00:02:05.472Z,44.47
2019-02-10T00:04:33.247Z,40.13
2019-02-10T00:07:00.927Z,41.70
2019-02-10T00:09:28.459Z,39.10
2019-02-10T00:11:56.052Z,34.43
2019-02-10T00:14:23.665Z,41.67
2019-02-10T00:16:51.294Z,43.03
2019-02-10T00:19:18.914Z,36.73
2019-02-10T00:21:46.498Z,36.70
2019-02-10T00:24:14.145Z,38.80
2019-02-10T00:26:41.791Z,38.33
2019-02-10T00:29:09.465Z,42.50
2019-02-10T00:31:37.236Z,36.77
2019-02-10T00:34:05.716Z,38.85
2019-02-10T00:36:33.738Z,38.40
2019-02-10T00:39:01.474Z,39.80
2019-02-10T00:41:29.168Z,37.30
2019-02-10T00:43:56.784Z,38.57
2019-02-10T00:46:24.360Z,35.37
2019-02-10T00:48:52.124Z,35.63
2019-02-10T00:51:19.777Z,40.43
2019-02-10T00:53:47.441Z,36.17
2019-02-10T00:56:15.096Z,33.63
2019-02-10T00:58:42.761Z,40.07
2019-02-10T01:01:10.407Z,37.17
2019-02-10T01:03:38.189Z,39.13
2019-02-10T01:06:06.064Z,37.23
2019-02-10T01:08:33.674Z,26.70
2019-02-10T01:11:01.401Z,26.73
2019-02-10T01:13:29.256Z,34.27
2019-02-10T01:15:56.852Z,27.93
2019-02-10T01:18:24.601Z,31.27
2019-02-10T01:20:52.228Z,30.90
2019-02-10T01:23:20.088Z,34.90
2019-02-10T01:25:47.891Z,35.33
2019-02-10T01:28:15.732Z,34.00
2019-02-10T01:30:43.414Z,29.07
2019-02-10T01:33:11.178Z,30.83
2019-02-10T01:35:38.823Z,24.07
2019-02-10T01:38:06.608Z,18.83
2019-02-10T01:40:34.256Z,30.83
2019-02-10T01:43:01.948Z,35.70
2019-02-10T01:45:29.511Z,32.60
2019-02-10T01:47:57.266Z,28.73
2019-02-10T01:50:25.028Z,29.03
2019-02-10T01:52:52.689Z,35.70
2019-02-10T01:55:20.352Z,28.73
2019-02-10T01:57:48.022Z,33.93
2019-02-10T02:00:16.024Z,30.10
2019-02-10T02:02:43.634Z,27.13
2019-02-10T02:05:11.254Z,30.47
2019-02-10T02:07:39.830Z,31.23
2019-02-10T02:10:08.695Z,34.87
2019-02-10T02:12:36.243Z,38.53
2019-02-10T02:15:04.321Z,34.63
2019-02-10T02:17:32.189Z,37.73
2019-02-10T02:19:59.853Z,41.87
2019-02-10T02:22:27.400Z,34.13
2019-02-10T02:24:55.179Z,34.97
2019-02-10T02:27:22.841Z,32.83
2019-02-10T02:29:50.465Z,34.60
2019-02-10T02:32:18.039Z,32.23
2019-02-10T02:34:45.641Z,33.40
2019-02-10T02:37:13.268Z,29.97
2019-02-10T02:39:40.872Z,37.53
2019-02-10T02:42:08.453Z,34.53
2019-02-10T02:44:36.076Z,33.70
2019-02-10T02:47:03.724Z,35.53
2019-02-10T02:49:31.289Z,38.00
2019-02-10T02:51:58.929Z,36.10
2019-02-10T02:54:26.534Z,30.90
2019-02-10T02:56:54.148Z,29.17
2019-02-10T02:59:21.724Z,36.77
2019-02-10T03:01:49.338Z,37.10
2019-02-10T03:04:16.943Z,38.80
2019-02-10T03:06:47.512Z,38.60
2019-02-10T03:09:15.259Z,30.33
2019-02-10T03:11:42.953Z,35.77
2019-02-10T03:14:10.574Z,34.03
2019-02-10T03:16:38.238Z,34.80
2019-02-10T03:19:05.894Z,40.07
2019-02-10T03:21:34.853Z,34.47
2019-02-10T03:24:02.418Z,34.30
2019-02-10T03:26:30.253Z,38.43
2019-02-10T03:28:57.828Z,35.93
2019-02-10T03:31:25.461Z,35.20
2019-02-10T03:33:53.240Z,37.33
2019-02-10T03:36:21.010Z,37.17
2019-02-10T03:38:48.623Z,34.00
2019-02-10T03:41:16.349Z,35.37
2019-02-10T03:43:43.999Z,39.33
2019-02-10T03:46:11.666Z,36.30
2019-02-10T03:48:39.428Z,36.90
2019-02-10T03:51:07.106Z,38.07
2019-02-10T03:53:34.877Z,42.20
2019-02-10T03:56:02.499Z,36.23
2019-02-10T03:58:30.129Z,37.77
2019-02-10T04:00:57.709Z,35.67
2019-02-10T04:03:25.364Z,41.73
2019-02-10T04:05:52.918Z,40.60
2019-02-10T04:08:20.504Z,40.93
2019-02-10T04:10:48.190Z,40.03
2019-02-10T04:13:15.776Z,37.00
2019-02-10T04:15:43.332Z,35.87
2019-02-10T04:18:10.887Z,33.37
2019-02-10T04:20:38.501Z,31.93
2019-02-10T04:23:07.804Z,30.43
2019-02-10T04:25:35.421Z,38.33
2019-02-10T04:28:02.960Z,32.93
2019-02-10T04:30:30.602Z,33.77
2019-02-10T04:32:58.245Z,26.00
2019-02-10T04:35:25.775Z,37.70
2019-02-10T04:37:53.390Z,34.23
2019-02-10T04:40:20.977Z,34.83
2019-02-10T04:42:48.585Z,34.27
2019-02-10T04:45:16.292Z,34.50
2019-02-10T04:47:43.914Z,36.00
2019-02-10T04:50:11.542Z,35.00
2019-02-10T04:52:39.157Z,34.20
2019-02-10T04:55:07.275Z,33.57
2019-02-10T04:57:34.891Z,35.63
2019-02-10T05:00:02.432Z,35.90
2019-02-10T05:02:30.068Z,35.47
2019-02-10T05:04:57.755Z,41.27
2019-02-10T05:07:25.393Z,30.27
2019-02-10T05:09:52.948Z,36.00
2019-02-10T05:12:21.123Z,36.93
2019-02-10T05:14:48.672Z,32.60
2019-02-10T05:17:16.289Z,35.30
2019-02-10T05:19:43.881Z,29.63
2019-02-10T05:22:11.472Z,31.43
2019-02-10T05:24:39.133Z,35.23
2019-02-10T05:27:06.720Z,39.67
2019-02-10T05:29:34.378Z,38.77
2019-02-10T05:32:01.974Z,31.07
2019-02-10T05:34:29.569Z,37.43
2019-02-10T05:36:57.229Z,33.87
2019-02-10T05:39:24.814Z,35.67
2019-02-10T05:41:52.492Z,32.37
2019-02-10T05:44:20.031Z,35.73
2019-02-10T05:46:47.618Z,37.37
2019-02-10T05:49:15.344Z,34.50
2019-02-10T05:51:43.030Z,35.07
2019-02-10T05:54:10.595Z,32.50
2019-02-10T05:56:38.619Z,31.77
2019-02-10T05:59:06.148Z,32.97
2019-02-10T06:01:52.201Z,34.23
2019-02-10T06:04:19.866Z,33.67
2019-02-10T06:06:47.638Z,32.17
2019-02-10T06:09:15.289Z,34.77
2019-02-10T06:11:42.876Z,25.97
2019-02-10T06:14:10.529Z,30.60
2019-02-10T06:16:38.292Z,34.07
2019-02-10T06:19:05.882Z,36.00
2019-02-10T06:21:33.530Z,32.87
2019-02-10T06:24:01.117Z,32.50
2019-02-10T06:26:28.676Z,24.17
2019-02-10T06:28:56.295Z,37.07
2019-02-10T06:31:24.055Z,37.13
2019-02-10T06:33:51.644Z,31.10
2019-02-10T06:36:19.272Z,31.97
2019-02-10T06:38:46.908Z,32.93
2019-02-10T06:41:14.489Z,37.40
2019-02-10T06:43:42.277Z,34.77
2019-02-10T06:46:09.884Z,32.80
2019-02-10T06:48:37.673Z,31.50
2019-02-10T06:51:05.244Z,29.90
2019-02-10T06:53:32.820Z,34.53
2019-02-10T06:56:00.437Z,37.63
2019-02-10T06:58:27.983Z,547.77
2019-02-10T07:01:12.251Z,579.37
2019-02-10T07:03:45.869Z,448.00
2019-02-10T07:06:14.116Z,426.23
2019-02-10T07:08:41.852Z,900.10
2019-02-10T07:11:09.404Z,1193.37
2019-02-10T07:13:41.205Z,875.50
2019-02-10T07:16:27.169Z,837.03
2019-02-10T07:19:12.958Z,742.83
2019-02-10T07:21:40.593Z,182.33
2019-02-10T07:24:18.945Z,132.33
2019-02-10T07:26:56.517Z,325.47
2019-02-10T07:29:42.287Z,131.07
2019-02-10T07:32:10.581Z,46.17
2019-02-10T07:34:47.733Z,37.37
2019-02-10T07:37:13.599Z,34.83
2019-02-10T07:39:48.525Z,37.87
2019-02-10T07:42:23.877Z,32.23
2019-02-10T07:44:55.812Z,35.17
2019-02-10T07:47:25.144Z,36.63
2019-02-10T07:49:57.309Z,35.73
2019-02-10T07:52:38.904Z,33.83
2019-02-10T07:55:11.165Z,34.07
2019-02-10T07:57:52.440Z,31.83
2019-02-10T08:00:21.963Z,40.27
2019-02-10T08:02:53.935Z,37.17
2019-02-10T08:05:23.141Z,42.80
2019-02-10T08:08:10.640Z,36.97
2019-02-10T08:10:42.779Z,42.17
2019-02-10T08:13:12.021Z,34.93
2019-02-10T08:15:47.267Z,44.03
2019-02-10T08:18:33.141Z,37.50
2019-02-10T08:21:11.242Z,43.80
2019-02-10T08:23:43.131Z,36.23
2019-02-10T08:26:18.574Z,37.13
2019-02-10T08:29:04.459Z,33.67
2019-02-10T08:31:33.595Z,32.57
2019-02-10T08:34:02.867Z,33.00
2019-02-10T08:36:34.843Z,32.07
2019-02-10T08:39:09.852Z,40.07
2019-02-10T08:41:45.003Z,33.37
2019-02-10T08:44:14.472Z,36.73
2019-02-10T08:47:02.444Z,27.07
2019-02-10T08:49:48.544Z,35.03
2019-02-10T08:52:30.032Z,21.27
2019-02-10T08:54:57.998Z,27.23
2019-02-10T08:57:25.674Z,32.27
2019-02-10T08:59:53.264Z,23.77
2019-02-10T09:02:20.887Z,33.07
2019-02-10T09:04:48.739Z,34.03
2019-02-10T09:07:16.425Z,40.53
2019-02-10T09:09:44.044Z,50.17
2019-02-10T09:12:12.152Z,33.07
2019-02-10T09:14:39.826Z,33.27
2019-02-10T09:17:07.484Z,30.17
2019-02-10T09:19:35.247Z,29.30
2019-02-10T09:22:02.826Z,23.17
2019-02-10T09:24:30.616Z,35.47
2019-02-10T09:26:58.236Z,27.20
2019-02-10T09:29:25.888Z,28.77
2019-02-10T09:31:53.560Z,26.77
2019-02-10T09:34:21.332Z,33.67
2019-02-10T09:36:49.095Z,33.60
2019-02-10T09:39:17.737Z,25.93
2019-02-10T09:41:45.349Z,37.73
2019-02-10T09:44:13.126Z,33.30
2019-02-10T09:46:40.667Z,25.70
2019-02-10T09:49:08.438Z,22.23
2019-02-10T09:51:36.306Z,29.80
2019-02-10T09:54:04.076Z,14.50
2019-02-10T09:56:31.729Z,26.70
2019-02-10T09:58:59.510Z,35.07
2019-02-10T10:01:27.052Z,32.77
2019-02-10T10:03:54.832Z,19.37
2019-02-10T10:06:22.746Z,31.97
2019-02-10T10:08:50.477Z,30.87
2019-02-10T10:11:18.127Z,47.50
2019-02-10T10:13:45.771Z,36.30
2019-02-10T10:16:13.381Z,12.87
2019-02-10T10:18:41.029Z,35.80
2019-02-10T10:21:08.567Z,22.93
2019-02-10T10:23:36.343Z,26.83
2019-02-10T10:26:04.105Z,39.60
2019-02-10T10:28:31.768Z,39.77
2019-02-10T10:30:59.550Z,42.17
2019-02-10T10:33:27.196Z,39.43
2019-02-10T10:35:54.873Z,42.33
2019-02-10T10:38:22.643Z,40.17
2019-02-10T10:40:50.295Z,40.90
2019-02-10T10:43:17.956Z,29.50
2019-02-10T10:45:45.827Z,32.40
2019-02-10T10:48:13.653Z,39.83
2019-02-10T10:50:41.563Z,34.93
2019-02-10T10:53:09.225Z,35.37
2019-02-10T10:55:36.886Z,38.37
2019-02-10T10:58:05.362Z,37.25
2019-02-10T11:00:33.031Z,37.73
2019-02-10T11:03:00.700Z,31.33
2019-02-10T11:05:28.377Z,26.67
2019-02-10T11:07:56.020Z,43.00
2019-02-10T11:10:23.699Z,37.93
2019-02-10T11:12:51.557Z,39.53
2019-02-10T11:15:19.217Z,29.80
2019-02-10T11:17:46.998Z,37.87
2019-02-10T11:20:14.649Z,41.10
2019-02-10T11:22:42.314Z,40.93
2019-02-10T11:25:10.368Z,28.60
2019-02-10T11:27:38.153Z,39.50
2019-02-10T11:30:10.179Z,21.63
2019-02-10T11:32:37.866Z,26.37
2019-02-10T11:35:06.056Z,41.50
2019-02-10T11:37:33.713Z,27.67
2019-02-10T11:40:01.292Z,26.10
2019-02-10T11:42:29.044Z,37.27
2019-02-10T11:44:56.708Z,26.27
2019-02-10T11:47:24.382Z,30.63
2019-02-10T11:49:52.028Z,24.90
2019-02-10T11:52:19.575Z,22.37
2019-02-10T11:54:47.191Z,33.13
2019-02-10T11:57:14.777Z,29.90
2019-02-10T11:59:42.483Z,29.70
2019-02-10T12:02:10.368Z,28.00
2019-02-10T12:04:38.008Z,28.73
2019-02-10T12:07:05.887Z,34.67
2019-02-10T12:09:33.658Z,33.97
2019-02-10T12:12:01.299Z,28.17
2019-02-10T12:14:28.975Z,29.97
2019-02-10T12:16:56.637Z,34.93
2019-02-10T12:19:24.285Z,27.57
2019-02-10T12:21:52.073Z,29.80
2019-02-10T12:24:19.653Z,27.50
2019-02-10T12:26:47.289Z,32.03
2019-02-10T12:29:14.957Z,27.53
2019-02-10T12:31:42.603Z,28.97
2019-02-10T12:34:10.290Z,31.23
2019-02-10T12:36:37.931Z,47.03
2019-02-10T12:39:05.629Z,35.63
2019-02-10T12:41:33.493Z,19.03
2019-02-10T12:44:01.137Z,64.07
2019-02-10T12:46:28.722Z,34.97
2019-02-10T12:48:56.366Z,45.90
2019-02-10T12:51:24.030Z,85.70
2019-02-10T12:53:51.624Z,75.33
2019-02-10T12:56:19.255Z,45.73
2019-02-10T12:58:46.917Z,38.47
2019-02-10T13:01:14.557Z,182.67
2019-02-10T13:03:42.251Z,271.10
2019-02-10T13:06:09.912Z,119.67
2019-02-10T13:08:37.517Z,466.73
2019-02-10T13:11:05.153Z,58.77
2019-02-10T13:13:32.736Z,421.00
2019-02-10T13:16:00.344Z,155.43
2019-02-10T13:18:27.958Z,162.13
2019-02-10T13:20:55.775Z,128.03
2019-02-10T13:23:23.448Z,57.67
2019-02-10T13:25:51.172Z,120.03
2019-02-10T13:28:18.808Z,43.80
2019-02-10T13:30:46.544Z,42.87
2019-02-10T13:33:14.213Z,38.30
2019-02-10T13:35:41.975Z,38.67
2019-02-10T13:38:09.741Z,39.93
2019-02-10T13:40:37.321Z,31.70
2019-02-10T13:43:05.068Z,34.67
2019-02-10T13:45:32.782Z,32.90
2019-02-10T13:48:00.448Z,34.47
2019-02-10T13:50:28.265Z,33.47
2019-02-10T13:52:55.916Z,34.87
2019-02-10T13:55:23.592Z,36.63
2019-02-10T13:57:51.336Z,34.60
2019-02-10T14:00:19.632Z,36.13
2019-02-10T14:02:47.308Z,35.80
2019-02-10T14:05:15.064Z,39.83
2019-02-10T14:07:42.605Z,40.67
2019-02-10T14:10:11.615Z,41.20
2019-02-10T14:12:39.380Z,33.87
2019-02-10T14:15:08.580Z,41.77
2019-02-10T14:17:36.357Z,42.03
2019-02-10T14:20:05.341Z,38.67
2019-02-10T14:22:33.006Z,40.60
2019-02-10T14:25:00.551Z,41.20
2019-02-10T14:27:49.009Z,44.40
2019-02-10T14:30:18.483Z,47.90
2019-02-10T14:32:46.041Z,47.13
2019-02-10T14:35:14.368Z,55.40
2019-02-10T14:37:42.023Z,45.33
2019-02-10T14:40:09.693Z,50.50
2019-02-10T14:42:37.361Z,42.30
2019-02-10T14:45:06.465Z,41.63
2019-02-10T14:47:34.218Z,48.07
2019-02-10T14:50:01.890Z,43.77
2019-02-10T14:52:50.363Z,51.90
2019-02-10T14:55:17.975Z,51.20
2019-02-10T14:57:46.269Z,61.47
2019-02-10T15:00:17.119Z,50.87
2019-02-10T15:02:44.878Z,54.93
2019-02-10T15:05:12.537Z,50.57
2019-02-10T15:07:40.316Z,51.27
2019-02-10T15:10:15.088Z,51.20
2019-02-10T15:12:42.797Z,43.03
2019-02-10T15:15:10.972Z,46.40
2019-02-10T15:17:39.200Z,49.00
2019-02-10T15:20:08.161Z,47.93
2019-02-10T15:22:35.729Z,46.17
2019-02-10T15:25:03.577Z,187.27
2019-02-10T15:27:31.439Z,86.40
2019-02-10T15:29:59.081Z,64.27
2019-02-10T15:32:26.776Z,53.97
2019-02-10T15:34:56.126Z,51.23
2019-02-10T15:37:23.663Z,61.27
2019-02-10T15:39:51.256Z,50.73
2019-02-10T15:42:18.961Z,60.73
2019-02-10T15:44:46.829Z,60.43
2019-02-10T15:47:14.597Z,79.83
2019-02-10T15:49:42.253Z,57.77
2019-02-10T15:52:09.917Z,62.80
2019-02-10T15:54:37.496Z,57.40
2019-02-10T15:57:05.075Z,45.87
2019-02-10T15:59:32.747Z,48.97
2019-02-10T16:02:00.352Z,46.00
2019-02-10T16:04:28.050Z,69.00
2019-02-10T16:06:55.663Z,56.70
2019-02-10T16:09:23.249Z,49.00
2019-02-10T16:11:50.841Z,45.20
2019-02-10T16:14:18.580Z,51.57
2019-02-10T16:16:46.235Z,41.33
2019-02-10T16:19:13.996Z,73.63
2019-02-10T16:21:41.551Z,46.20
2019-02-10T16:24:09.323Z,41.83
2019-02-10T16:26:37.107Z,47.93
2019-02-10T16:29:04.780Z,45.13
2019-02-10T16:31:32.387Z,41.43
2019-02-10T16:34:00.202Z,38.73
2019-02-10T16:36:27.852Z,44.33
2019-02-10T16:38:55.624Z,44.70
2019-02-10T16:41:23.224Z,49.23
2019-02-10T16:43:50.956Z,40.13
2019-02-10T16:46:18.618Z,47.27
2019-02-10T16:48:46.263Z,51.53
2019-02-10T16:51:14.153Z,52.20
2019-02-10T16:53:41.805Z,49.37
2019-02-10T16:56:09.399Z,48.23
2019-02-10T16:58:37.140Z,47.97
2019-02-10T17:01:05.009Z,46.77
2019-02-10T17:03:32.681Z,149.70
2019-02-10T17:06:00.332Z,71.93
2019-02-10T17:08:27.928Z,38.53
2019-02-10T17:10:57.710Z,52.87
2019-02-10T17:13:25.384Z,47.27
2019-02-10T17:15:53.000Z,51.20
2019-02-10T17:18:20.580Z,60.27
2019-02-10T17:20:48.252Z,64.00
2019-02-10T17:23:16.027Z,60.97
2019-02-10T17:25:43.687Z,58.57
2019-02-10T17:28:11.348Z,60.63
2019-02-10T17:30:39.000Z,58.90
2019-02-10T17:33:06.676Z,62.97
2019-02-10T17:35:34.340Z,62.37
2019-02-10T17:38:01.987Z,59.30
2019-02-10T17:40:37.461Z,59.93
2019-02-10T17:43:05.326Z,66.27
2019-02-10T17:45:33.099Z,77.33
2019-02-10T17:48:00.850Z,65.10
2019-02-10T17:50:28.517Z,72.07
2019-02-10T17:52:56.267Z,76.00
2019-02-10T17:55:24.050Z,74.53
2019-02-10T17:57:51.709Z,76.60
2019-02-10T18:00:21.015Z,84.87
2019-02-10T18:02:48.681Z,86.57
2019-02-10T18:05:16.340Z,79.67
2019-02-10T18:07:43.997Z,73.30
2019-02-10T18:10:14.694Z,89.40
2019-02-10T18:12:42.399Z,85.23
2019-02-10T18:15:13.139Z,82.17
2019-02-10T18:17:51.679Z,80.80
2019-02-10T18:20:23.604Z,73.10
2019-02-10T18:22:52.924Z,74.87
2019-02-10T18:25:34.529Z,71.87
2019-02-10T18:28:21.935Z,75.97
2019-02-10T18:30:51.253Z,81.90
2019-02-10T18:33:20.454Z,77.67
2019-02-10T18:36:06.327Z,154.17
2019-02-10T18:38:35.629Z,78.87
2019-02-10T18:41:17.307Z,85.67
2019-02-10T18:43:56.050Z,80.60
2019-02-10T18:46:25.449Z,84.37
2019-02-10T18:48:55.767Z,78.57
2019-02-10T18:51:34.185Z,73.07
2019-02-10T18:54:09.227Z,71.33
2019-02-10T18:56:55.207Z,67.43
2019-02-10T18:59:27.081Z,70.37
2019-02-10T19:01:56.232Z,70.13
2019-02-10T19:04:34.707Z,70.10
2019-02-10T19:07:03.897Z,72.50
2019-02-10T19:09:33.203Z,75.70
2019-02-10T19:12:05.265Z,85.13
2019-02-10T19:14:34.460Z,76.37
2019-02-10T19:17:09.500Z,87.87
2019-02-10T19:19:38.813Z,73.60
2019-02-10T19:22:23.063Z,79.57
2019-02-10T19:25:04.649Z,77.97
2019-02-10T19:27:46.120Z,75.50
2019-02-10T19:30:31.312Z,95.83
2019-02-10T19:33:17.197Z,66.20
2019-02-10T19:35:52.368Z,69.97
2019-02-10T19:38:23.948Z,70.50
2019-02-10T19:40:53.072Z,71.60
2019-02-10T19:43:40.734Z,68.23
2019-02-10T19:46:27.956Z,62.07
2019-02-10T19:49:00.835Z,60.27
2019-02-10T19:51:46.514Z,67.30
2019-02-10T19:54:28.096Z,60.00
2019-02-10T19:57:12.261Z,61.87
2019-02-10T19:59:50.452Z,56.07
2019-02-10T20:02:20.324Z,59.50
2019-02-10T20:04:55.730Z,85.33
2019-02-10T20:07:34.039Z,54.00
2019-02-10T20:10:03.229Z,60.53
2019-02-10T20:12:32.456Z,65.33
2019-02-10T20:15:10.855Z,50.53
2019-02-10T20:17:52.154Z,59.47
2019-02-10T20:20:21.547Z,56.30
2019-02-10T20:22:56.173Z,57.13
2019-02-10T20:25:41.972Z,83.40
2019-02-10T20:28:27.644Z,60.67
2019-02-10T20:31:06.020Z,56.33
2019-02-10T20:33:42.525Z,70.57
2019-02-10T20:36:28.016Z,57.13
2019-02-10T20:39:03.090Z,67.93
2019-02-10T20:41:32.270Z,76.33
2019-02-10T20:44:01.413Z,58.83
2019-02-10T20:46:45.742Z,71.13
2019-02-10T20:49:17.432Z,68.83
2019-02-10T20:51:49.601Z,73.10
2019-02-10T20:54:35.528Z,68.10
2019-02-10T20:57:04.795Z,74.83
2019-02-10T20:59:37.051Z,93.73
2019-02-10T21:02:13.105Z,72.75
2019-02-10T21:04:45.171Z,113.13
2019-02-10T21:07:23.596Z,93.60
2019-02-10T21:10:08.117Z,74.13
2019-02-10T21:12:53.709Z,61.03
2019-02-10T21:15:39.618Z,66.87
2019-02-10T21:18:11.921Z,87.90
2019-02-10T21:20:57.562Z,58.43
2019-02-10T21:23:33.072Z,55.40
2019-02-10T21:26:11.699Z,48.83
2019-02-10T21:28:40.807Z,86.97
2019-02-10T21:31:12.943Z,75.60
2019-02-10T21:33:42.260Z,80.50
2019-02-10T21:36:11.573Z,58.17
2019-02-10T21:38:40.764Z,62.77
2019-02-10T21:41:22.506Z,49.43
2019-02-10T21:43:57.803Z,53.07
2019-02-10T21:46:27.100Z,68.70
2019-02-10T21:48:56.283Z,50.57
2019-02-10T21:51:24.076Z,52.37
2019-02-10T21:53:58.488Z,53.03
2019-02-10T21:56:26.356Z,47.30
2019-02-10T21:58:54.229Z,47.43
2019-02-10T22:01:22.103Z,51.33
2019-02-10T22:03:49.739Z,49.47
2019-02-10T22:06:17.526Z,47.70
2019-02-10T22:08:45.188Z,51.73
2019-02-10T22:11:13.057Z,52.73
2019-02-10T22:13:40.699Z,45.47
2019-02-10T22:16:08.488Z,48.43
2019-02-10T22:18:36.257Z,49.57
2019-02-10T22:21:04.019Z,46.90
2019-02-10T22:23:31.680Z,43.23
2019-02-10T22:25:59.340Z,48.53
2019-02-10T22:28:27.967Z,44.83
2019-02-10T22:30:55.606Z,50.27
2019-02-10T22:33:23.255Z,49.53
2019-02-10T22:35:50.804Z,56.10
2019-02-10T22:38:18.579Z,56.67
2019-02-10T22:40:46.447Z,45.60
2019-02-10T22:43:14.096Z,49.40
2019-02-10T22:45:41.778Z,54.07
2019-02-10T22:48:09.437Z,48.20
2019-02-10T22:50:37.101Z,52.70
2019-02-10T22:53:04.695Z,52.03
2019-02-10T22:55:32.428Z,49.60
2019-02-10T22:58:00.076Z,51.13
2019-02-10T23:00:32.839Z,48.80
2019-02-10T23:03:00.647Z,52.47
2019-02-10T23:05:28.419Z,48.17
2019-02-10T23:07:56.178Z,48.90
2019-02-10T23:10:23.719Z,49.30
2019-02-10T23:12:53.816Z,51.57
2019-02-10T23:15:20.700Z,46.77
2019-02-10T23:17:48.389Z,49.70
2019-02-10T23:20:15.989Z,52.10
2019-02-10T23:22:43.531Z,50.23
2019-02-10T23:25:11.254Z,46.93
2019-02-10T23:27:39.032Z,48.33
2019-02-10T23:30:07.236Z,50.23
2019-02-10T23:32:34.882Z,49.23
2019-02-10T23:35:03.944Z,45.03
2019-02-10T23:37:31.612Z,46.40
2019-02-10T23:39:59.263Z,47.10
2019-02-10T23:42:26.819Z,46.93
2019-02-10T23:44:54.387Z,44.27
2019-02-10T23:47:23.102Z,42.63
2019-02-10T23:49:50.962Z,47.93
2019-02-10T23:52:18.620Z,47.27
2019-02-10T23:54:46.285Z,42.83
2019-02-10T23:57:14.054Z,42.20
2019-02-10T23:59:41.728Z,45.10
